Time;durP1;ratioP1;P1;durP2;ratioP2;P2;SDS_P1;SDS_P2;PMS_P1;PMS_P2;Temp;Humidity;BMP_temperature;BMP_pressure;BME280_temperature;BME280_humidity;BME280_pressure;Samples;Min_cycle;Max_cycle;Signal;HPM_P1;HPM_P2
2022/07/06 00:00:33;;;;;;;5.35;1.00;;;23.10;64.20;;;;;;4938416;29;20067;-76
2022/07/06 00:02:59;;;;;;;3.00;0.85;;;23.10;64.10;;;;;;4937910;29;20467;-76
2022/07/06 00:05:25;;;;;;;2.70;1.08;;;23.10;64.30;;;;;;4921852;29;20135;-76
2022/07/06 00:07:51;;;;;;;2.70;0.95;;;23.00;64.50;;;;;;4919334;29;20496;-76
2022/07/06 00:10:17;;;;;;;2.78;0.90;;;23.00;64.60;;;;;;4918132;29;20033;-76
2022/07/06 00:12:42;;;;;;;2.22;0.90;;;23.00;64.70;;;;;;4919681;29;20024;-76
2022/07/06 00:15:08;;;;;;;7.40;1.00;;;22.90;64.70;;;;;;4926354;29;20076;-76
2022/07/06 00:17:34;;;;;;;7.47;0.90;;;22.90;65.10;;;;;;4938010;29;20028;-76
2022/07/06 00:20:00;;;;;;;5.53;1.08;;;22.90;65.10;;;;;;4937571;29;20059;-76
2022/07/06 00:22:25;;;;;;;2.35;0.98;;;22.90;65.10;;;;;;4938020;29;20023;-76
2022/07/06 00:24:51;;;;;;;2.33;0.80;;;22.80;64.50;;;;;;4938421;29;20083;-76
2022/07/06 00:27:17;;;;;;;2.47;1.00;;;22.80;64.70;;;;;;4937730;29;20445;-77
2022/07/06 00:29:43;;;;;;;2.22;0.82;;;22.80;65.10;;;;;;4937861;29;20099;-77
2022/07/06 00:32:11;;;;;;;2.95;1.20;;;22.80;64.70;;;;;;4937316;29;20598;-76
2022/07/06 00:34:39;;;;;;;4.47;0.88;;;22.70;64.70;;;;;;4937985;29;20491;-76
2022/07/06 00:37:06;;;;;;;5.78;0.93;;;22.80;65.30;;;;;;4937059;29;20491;-76
2022/07/06 00:39:32;;;;;;;4.03;1.30;;;22.70;65.20;;;;;;4937160;29;20114;-76
2022/07/06 00:41:58;;;;;;;4.20;1.10;;;22.70;65.50;;;;;;4937817;29;20058;-76
2022/07/06 00:44:24;;;;;;;2.75;1.00;;;22.60;65.50;;;;;;4937625;29;20056;-76
2022/07/06 00:46:49;;;;;;;1.70;1.00;;;22.60;66.30;;;;;;4936762;29;20395;-76
2022/07/06 00:52:01;;;;;;;2.55;0.90;;;22.50;66.10;;;;;;4916226;29;20039;-77
2022/07/06 00:54:31;;;;;;;6.90;0.80;;;22.50;66.30;;;;;;4916279;29;20564;-77
2022/07/06 00:56:57;;;;;;;3.85;1.02;;;22.50;66.70;;;;;;4916247;29;20114;-76
2022/07/06 00:59:24;;;;;;;2.10;0.80;;;22.40;66.60;;;;;;4916259;29;20111;-76
2022/07/06 01:01:49;;;;;;;5.70;0.82;;;22.40;66.80;;;;;;4912180;29;20029;-76
2022/07/06 01:04:15;;;;;;;4.45;0.90;;;22.40;67.00;;;;;;4903907;29;20523;-77
2022/07/06 01:06:41;;;;;;;4.25;1.35;;;22.30;67.00;;;;;;4916170;29;20431;-76
2022/07/06 01:09:07;;;;;;;2.80;0.80;;;22.30;66.80;;;;;;4915635;29;20084;-76
2022/07/06 01:11:33;;;;;;;2.22;1.00;;;22.20;66.60;;;;;;4916098;29;20024;-76
2022/07/06 01:14:01;;;;;;;4.57;0.95;;;22.20;66.50;;;;;;4916103;29;20111;-76
2022/07/06 01:16:26;;;;;;;1.75;0.95;;;22.20;66.80;;;;;;4915068;29;20048;-76
2022/07/06 01:18:52;;;;;;;3.70;1.00;;;22.20;67.00;;;;;;4915436;29;20546;-77
2022/07/06 01:21:18;;;;;;;1.25;0.60;;;22.10;66.70;;;;;;4915303;29;20168;-76
2022/07/06 01:23:45;;;;;;;3.55;1.00;;;22.10;66.90;;;;;;4915805;29;20048;-76
2022/07/06 01:26:18;;;;;;;2.28;0.77;;;22.10;67.60;;;;;;4915571;29;20024;-77
2022/07/06 01:28:45;;;;;;;2.60;0.70;;;22.00;67.90;;;;;;4923330;29;20048;-76
2022/07/06 01:31:18;;;;;;;1.60;1.00;;;22.00;67.90;;;;;;4936670;29;20023;-76
2022/07/06 01:33:44;;;;;;;2.15;0.70;;;22.00;68.10;;;;;;4936891;29;20510;-76
2022/07/06 01:36:11;;;;;;;1.77;0.65;;;21.90;68.20;;;;;;4936157;29;20032;-76
2022/07/06 01:38:50;;;;;;;2.90;1.00;;;21.80;68.40;;;;;;4936429;29;20403;-76
2022/07/06 01:41:16;;;;;;;3.40;1.10;;;21.70;68.90;;;;;;4935959;29;20059;-76
2022/07/06 01:43:42;;;;;;;2.55;0.98;;;21.80;68.60;;;;;;4936314;29;20396;-76
2022/07/06 01:46:08;;;;;;;1.50;0.75;;;21.70;69.00;;;;;;4936181;29;20028;-76
2022/07/06 01:48:34;;;;;;;1.80;1.00;;;21.70;68.80;;;;;;4934677;29;20400;-76
2022/07/06 01:51:00;;;;;;;4.63;0.80;;;21.70;68.80;;;;;;4936533;29;20380;-76
2022/07/06 01:53:25;;;;;;;5.50;0.80;;;21.60;68.90;;;;;;4936381;29;20035;-76
2022/07/06 01:55:51;;;;;;;2.33;0.85;;;21.60;68.90;;;;;;4935640;29;20038;-76
2022/07/06 01:58:16;;;;;;;2.10;0.70;;;21.60;68.90;;;;;;4935844;29;20543;-76
2022/07/06 02:00:42;;;;;;;2.65;1.15;;;21.60;69.30;;;;;;4936200;29;20460;-76
2022/07/06 02:03:08;;;;;;;3.42;1.00;;;21.60;69.50;;;;;;4935360;29;20055;-76
2022/07/06 02:05:33;;;;;;;2.38;1.20;;;21.60;69.70;;;;;;4918781;29;20084;-76
2022/07/06 02:07:59;;;;;;;3.40;1.00;;;21.50;70.50;;;;;;4924324;29;20028;-76
2022/07/06 02:10:25;;;;;;;1.52;0.80;;;21.50;70.60;;;;;;4935976;29;20035;-76
2022/07/06 02:12:50;;;;;;;4.20;1.17;;;21.40;70.80;;;;;;4935875;29;20051;-76
2022/07/06 02:15:16;;;;;;;3.30;1.20;;;21.40;71.40;;;;;;4935736;29;20066;-76
2022/07/06 02:17:42;;;;;;;2.20;1.08;;;21.30;71.30;;;;;;4935875;29;20455;-76
2022/07/06 02:20:08;;;;;;;1.23;0.80;;;21.30;71.50;;;;;;4933783;29;20473;-76
2022/07/06 02:22:34;;;;;;;5.75;1.23;;;21.30;71.70;;;;;;4936209;29;20038;-76
2022/07/06 02:24:59;;;;;;;2.10;0.88;;;21.30;71.70;;;;;;4935735;29;20040;-76
2022/07/06 02:27:25;;;;;;;2.25;1.27;;;21.30;72.00;;;;;;4935289;29;20062;-77
2022/07/06 02:29:51;;;;;;;2.25;1.05;;;21.20;72.10;;;;;;4935612;29;20445;-76
2022/07/06 02:32:16;;;;;;;2.17;0.85;;;21.20;71.90;;;;;;4935551;29;20028;-76
2022/07/06 02:34:42;;;;;;;4.57;0.98;;;21.10;72.10;;;;;;4935719;29;20067;-76
2022/07/06 02:37:08;;;;;;;2.53;1.15;;;21.10;72.10;;;;;;4935694;29;20491;-76
2022/07/06 02:39:33;;;;;;;5.32;0.75;;;21.10;72.20;;;;;;4935408;29;20060;-77
2022/07/06 02:41:59;;;;;;;3.45;1.05;;;21.10;72.30;;;;;;4934812;29;20040;-76
2022/07/06 02:44:25;;;;;;;3.70;1.00;;;21.10;72.50;;;;;;4935277;29;20046;-77
2022/07/06 02:46:51;;;;;;;1.10;0.77;;;21.10;72.80;;;;;;4935579;29;20498;-76
2022/07/06 02:49:16;;;;;;;2.45;0.80;;;21.00;72.70;;;;;;4934252;29;20020;-76
2022/07/06 02:51:42;;;;;;;3.92;1.10;;;21.00;73.40;;;;;;4935288;29;20032;-77
2022/07/06 02:54:07;;;;;;;5.05;0.90;;;21.00;73.80;;;;;;4935642;29;20043;-76
2022/07/06 02:56:33;;;;;;;5.07;1.23;;;21.00;73.60;;;;;;4934498;29;20031;-75
2022/07/06 02:58:59;;;;;;;5.07;1.40;;;21.00;74.50;;;;;;4916301;29;20024;-76
2022/07/06 03:01:24;;;;;;;2.80;0.90;;;21.00;74.20;;;;;;4928014;29;20036;-76
2022/07/06 03:03:50;;;;;;;5.97;1.00;;;20.90;74.50;;;;;;4930767;29;20044;-76
2022/07/06 03:06:16;;;;;;;4.70;1.02;;;20.90;75.80;;;;;;4916356;29;20024;-77
2022/07/06 03:08:41;;;;;;;3.80;1.00;;;20.70;75.80;;;;;;4915974;29;20032;-76
2022/07/06 03:11:07;;;;;;;6.25;1.30;;;20.40;76.80;;;;;;4925997;29;20030;-76
2022/07/06 03:13:32;;;;;;;7.93;1.23;;;20.40;78.10;;;;;;4935015;29;20062;-76
2022/07/06 03:15:58;;;;;;;3.45;0.90;;;20.50;78.50;;;;;;4935062;29;20027;-76
2022/07/06 03:18:24;;;;;;;3.92;1.00;;;20.50;78.90;;;;;;4934869;29;20078;-75
2022/07/06 03:20:49;;;;;;;3.95;0.88;;;20.40;79.40;;;;;;4934940;29;20040;-75
2022/07/06 03:23:15;;;;;;;3.78;1.00;;;20.50;79.90;;;;;;4934949;29;20027;-76
2022/07/06 03:25:41;;;;;;;4.20;1.30;;;20.40;80.70;;;;;;4934627;29;20031;-76
2022/07/06 03:28:06;;;;;;;5.00;1.20;;;20.30;81.70;;;;;;4934937;29;20058;-76
2022/07/06 03:30:32;;;;;;;2.22;0.90;;;20.20;81.50;;;;;;4934711;29;20087;-76
2022/07/06 03:32:58;;;;;;;3.67;1.25;;;19.90;82.60;;;;;;4933515;29;20027;-76
2022/07/06 03:35:23;;;;;;;3.65;1.60;;;20.10;83.90;;;;;;4934737;29;20083;-76
2022/07/06 03:37:49;;;;;;;4.50;1.77;;;20.20;84.00;;;;;;4934584;29;20028;-77
2022/07/06 03:40:15;;;;;;;7.78;1.45;;;20.30;84.20;;;;;;4933654;29;20094;-76
2022/07/06 03:42:40;;;;;;;3.80;1.30;;;20.30;84.30;;;;;;4934801;29;20016;-76
2022/07/06 03:45:07;;;;;;;4.35;1.10;;;20.30;84.60;;;;;;4934370;29;20428;-76
2022/07/06 03:47:33;;;;;;;5.97;1.55;;;20.30;85.60;;;;;;4934188;29;20507;-76
2022/07/06 03:49:58;;;;;;;7.03;1.60;;;20.30;85.50;;;;;;4934584;29;20023;-76
2022/07/06 03:52:24;;;;;;;6.53;1.50;;;20.30;86.00;;;;;;4934775;29;20032;-76
2022/07/06 03:54:50;;;;;;;4.18;1.25;;;20.30;86.00;;;;;;4934266;29;20035;-76
2022/07/06 03:57:16;;;;;;;3.80;1.60;;;20.20;86.30;;;;;;4934549;29;20027;-76
2022/07/06 03:59:42;;;;;;;4.07;1.30;;;20.30;86.50;;;;;;4934498;29;20024;-76
2022/07/06 04:02:08;;;;;;;5.35;1.35;;;20.10;88.00;;;;;;4934692;29;20027;-76
2022/07/06 04:04:34;;;;;;;6.30;1.08;;;20.10;87.60;;;;;;4924361;29;20052;-76
2022/07/06 04:06:59;;;;;;;3.67;1.23;;;20.10;88.00;;;;;;4934528;29;20393;-76
2022/07/06 04:09:26;;;;;;;4.13;1.42;;;20.00;88.60;;;;;;4934062;29;20034;-76
2022/07/06 04:11:52;;;;;;;5.10;1.20;;;19.90;89.20;;;;;;4934511;29;20028;-77
2022/07/06 04:14:18;;;;;;;5.10;1.50;;;19.90;89.50;;;;;;4934537;29;20083;-78
2022/07/06 04:16:44;;;;;;;4.30;1.38;;;19.90;89.20;;;;;;4934207;29;20024;-76
2022/07/06 04:19:09;;;;;;;2.15;1.10;;;19.80;89.60;;;;;;4934506;29;20038;-76
2022/07/06 04:21:35;;;;;;;6.03;1.33;;;19.90;89.00;;;;;;4934437;29;20059;-76
2022/07/06 04:24:01;;;;;;;2.33;1.40;;;19.90;88.80;;;;;;4934056;29;20024;-76
2022/07/06 04:26:26;;;;;;;4.35;1.42;;;19.90;89.00;;;;;;4934323;29;20035;-77
2022/07/06 04:28:52;;;;;;;5.72;1.20;;;19.90;89.50;;;;;;4934197;29;20076;-76
2022/07/06 04:31:18;;;;;;;2.38;1.23;;;20.00;89.20;;;;;;4934614;29;20028;-76
2022/07/06 04:33:43;;;;;;;3.80;1.65;;;19.80;89.10;;;;;;4934131;29;20040;-76
2022/07/06 04:36:12;;;;;;;4.07;1.50;;;19.80;90.00;;;;;;4934677;29;20095;-76
2022/07/06 04:38:37;;;;;;;3.55;1.10;;;19.80;89.30;;;;;;4933612;29;20035;-77
2022/07/06 04:41:03;;;;;;;3.22;1.40;;;19.80;89.50;;;;;;4933746;29;20038;-76
2022/07/06 04:43:29;;;;;;;7.93;1.52;;;19.80;89.90;;;;;;4935323;29;20057;-77
2022/07/06 04:45:55;;;;;;;3.75;1.50;;;19.80;90.10;;;;;;4937594;29;20074;-77
2022/07/06 04:48:20;;;;;;;1.88;1.05;;;20.00;90.00;;;;;;4936842;29;20067;-77
2022/07/06 04:50:46;;;;;;;3.85;1.60;;;19.90;90.00;;;;;;4936951;29;20098;-77
2022/07/06 04:53:12;;;;;;;3.47;1.25;;;19.80;89.60;;;;;;4937390;29;20028;-77
2022/07/06 04:55:38;;;;;;;3.00;1.40;;;19.80;90.30;;;;;;4937704;29;20059;-77
2022/07/06 04:58:03;;;;;;;6.63;1.25;;;19.60;90.80;;;;;;4936906;29;20046;-77
2022/07/06 05:00:29;;;;;;;5.85;1.10;;;19.70;91.20;;;;;;4937487;29;20054;-77
2022/07/06 05:02:55;;;;;;;6.57;1.25;;;19.50;91.00;;;;;;4936798;29;20142;-77
2022/07/06 05:05:20;;;;;;;6.93;1.45;;;19.50;91.40;;;;;;4921208;29;20090;-77
2022/07/06 05:07:46;;;;;;;7.32;1.33;;;19.70;91.40;;;;;;4917896;29;20039;-77
2022/07/06 05:10:12;;;;;;;7.32;1.10;;;19.70;91.20;;;;;;4918316;29;20077;-77
2022/07/06 05:12:38;;;;;;;1.85;1.02;;;19.60;91.80;;;;;;4932381;29;20054;-77
2022/07/06 05:15:04;;;;;;;3.80;1.35;;;19.50;91.90;;;;;;4937226;29;20019;-78
2022/07/06 05:17:30;;;;;;;5.70;1.63;;;19.70;91.60;;;;;;4936969;29;20035;-77
2022/07/06 05:19:56;;;;;;;4.78;1.67;;;19.60;91.30;;;;;;4937024;29;20035;-77
2022/07/06 05:22:22;;;;;;;8.40;1.25;;;19.40;92.00;;;;;;4936760;29;20063;-77
2022/07/06 05:24:48;;;;;;;8.23;1.52;;;19.60;92.00;;;;;;4936741;29;20066;-77
2022/07/06 05:27:13;;;;;;;8.00;1.45;;;19.60;91.80;;;;;;4936497;29;20071;-77
2022/07/06 05:29:39;;;;;;;7.15;1.48;;;19.50;92.20;;;;;;4936235;29;20042;-77
2022/07/06 05:32:05;;;;;;;10.98;1.60;;;19.50;92.30;;;;;;4937056;29;20118;-77
2022/07/06 05:34:31;;;;;;;4.53;1.60;;;19.60;92.60;;;;;;4936250;29;20028;-77
2022/07/06 05:36:56;;;;;;;4.78;1.52;;;19.70;92.30;;;;;;4935946;29;20036;-76
2022/07/06 05:39:23;;;;;;;5.82;1.80;;;19.80;92.20;;;;;;4935913;29;20034;-77
2022/07/06 05:41:49;;;;;;;5.65;1.98;;;19.70;92.60;;;;;;4935848;29;20075;-77
2022/07/06 05:44:15;;;;;;;6.72;1.35;;;19.80;92.40;;;;;;4935764;29;20492;-77
2022/07/06 05:46:40;;;;;;;7.32;1.65;;;19.80;92.70;;;;;;4935617;29;20122;-77
2022/07/06 05:52:04;;;;;;;4.47;1.88;;;19.80;92.90;;;;;;4916632;29;20035;-78
2022/07/06 05:54:30;;;;;;;4.80;1.90;;;19.80;92.70;;;;;;4936117;29;20106;-77
2022/07/06 05:56:55;;;;;;;9.70;1.45;;;19.90;92.80;;;;;;4935375;29;20038;-76
2022/07/06 05:59:21;;;;;;;2.72;1.23;;;19.90;92.50;;;;;;4934614;29;20055;-76
2022/07/06 06:01:47;;;;;;;4.85;1.40;;;19.90;92.60;;;;;;4936141;29;20476;-76
2022/07/06 06:04:12;;;;;;;7.75;1.73;;;19.90;93.00;;;;;;4935556;29;20496;-76
2022/07/06 06:06:38;;;;;;;7.97;1.85;;;19.90;93.30;;;;;;4935726;29;20039;-76
2022/07/06 06:09:03;;;;;;;8.23;1.50;;;20.00;92.70;;;;;;4935587;29;20026;-76
2022/07/06 06:11:29;;;;;;;4.57;1.67;;;20.10;92.50;;;;;;4935162;29;20035;-77
2022/07/06 06:13:55;;;;;;;4.60;1.85;;;20.10;92.40;;;;;;4935293;29;20042;-77
2022/07/06 06:16:20;;;;;;;6.85;1.90;;;20.20;92.10;;;;;;4935656;29;20032;-76
2022/07/06 06:18:46;;;;;;;7.07;1.60;;;20.30;91.90;;;;;;4935197;29;20046;-77
2022/07/06 06:21:12;;;;;;;6.50;1.73;;;20.30;92.00;;;;;;4935725;29;20079;-77
2022/07/06 06:23:37;;;;;;;11.13;1.52;;;20.30;92.00;;;;;;4935670;29;20031;-77
2022/07/06 06:26:03;;;;;;;11.30;1.55;;;20.30;92.30;;;;;;4935544;29;20028;-76
2022/07/06 06:28:29;;;;;;;2.15;1.20;;;20.30;92.10;;;;;;4935848;29;20388;-76
2022/07/06 06:30:54;;;;;;;5.82;1.30;;;20.40;91.80;;;;;;4935647;29;20032;-76
2022/07/06 06:33:21;;;;;;;4.20;1.45;;;20.50;92.10;;;;;;4935178;29;20515;-77
2022/07/06 06:35:49;;;;;;;9.93;1.20;;;20.60;92.10;;;;;;4935478;29;20038;-76
2022/07/06 06:38:16;;;;;;;8.23;2.13;;;20.60;92.00;;;;;;4935681;29;20043;-76
2022/07/06 06:40:42;;;;;;;11.20;2.33;;;20.70;92.10;;;;;;4933146;29;20027;-77
2022/07/06 06:43:08;;;;;;;8.90;1.60;;;20.60;92.20;;;;;;4934224;29;20028;-76
2022/07/06 06:45:33;;;;;;;11.90;1.77;;;20.70;92.10;;;;;;4934211;29;20032;-79
2022/07/06 06:47:59;;;;;;;9.80;1.85;;;20.70;92.40;;;;;;4934203;29;20027;-76
2022/07/06 06:50:25;;;;;;;7.07;1.65;;;20.70;91.70;;;;;;4934009;29;20126;-79
2022/07/06 06:52:51;;;;;;;8.07;1.30;;;20.80;91.80;;;;;;4932049;29;20023;-77
2022/07/06 06:55:17;;;;;;;7.95;1.80;;;20.80;91.60;;;;;;4919018;29;20026;-77
2022/07/06 06:57:42;;;;;;;5.75;2.00;;;20.90;91.30;;;;;;4923932;29;20043;-78
2022/07/06 07:00:09;;;;;;;6.13;2.58;;;21.00;91.20;;;;;;4932636;29;20063;-78
2022/07/06 07:02:34;;;;;;;16.20;7.07;;;21.00;91.00;;;;;;4931985;29;20143;-78
2022/07/06 07:05:01;;;;;;;22.92;10.48;;;21.00;90.50;;;;;;4931714;29;20559;-77
2022/07/06 07:07:26;;;;;;;40.13;11.90;;;21.00;90.50;;;;;;4918590;29;20020;-76
2022/07/06 07:09:52;;;;;;;19.00;8.75;;;21.10;90.30;;;;;;4929897;29;20477;-76
2022/07/06 07:12:17;;;;;;;15.20;7.80;;;21.10;90.10;;;;;;4919954;29;20019;-76
2022/07/06 07:14:44;;;;;;;10.93;4.40;;;21.20;90.10;;;;;;4919574;29;20657;-76
2022/07/06 07:17:11;;;;;;;7.50;3.08;;;21.20;90.00;;;;;;4921903;29;20035;-76
2022/07/06 07:19:37;;;;;;;18.10;4.47;;;21.40;90.10;;;;;;4925527;29;20034;-78
2022/07/06 07:22:03;;;;;;;10.70;3.45;;;21.40;89.90;;;;;;4918586;29;20366;-75
2022/07/06 07:24:29;;;;;;;9.27;1.90;;;21.70;88.60;;;;;;4916380;29;20035;-75
2022/07/06 07:26:54;;;;;;;7.95;1.80;;;21.80;87.50;;;;;;4916798;29;20032;-76
2022/07/06 07:29:20;;;;;;;4.40;1.83;;;21.90;86.90;;;;;;4919400;29;20031;-76
2022/07/06 07:31:46;;;;;;;8.25;1.95;;;22.10;86.60;;;;;;4918848;29;20535;-76
2022/07/06 07:34:12;;;;;;;13.73;1.77;;;22.20;86.00;;;;;;4921139;29;20401;-75
2022/07/06 07:36:37;;;;;;;4.00;1.13;;;22.40;85.20;;;;;;4922513;29;20020;-75
2022/07/06 07:39:03;;;;;;;8.23;1.85;;;22.40;83.90;;;;;;4918476;29;20528;-76
2022/07/06 07:41:29;;;;;;;5.63;1.83;;;22.50;84.30;;;;;;4914559;29;20027;-76
2022/07/06 07:43:55;;;;;;;10.77;1.33;;;22.60;83.20;;;;;;4915919;29;20111;-76
2022/07/06 07:46:20;;;;;;;9.70;1.90;;;22.50;83.20;;;;;;4916795;29;20069;-76
2022/07/06 07:48:46;;;;;;;8.10;1.80;;;22.50;83.00;;;;;;4917254;29;20024;-74
2022/07/06 07:51:12;;;;;;;8.65;1.15;;;22.40;83.10;;;;;;4931168;29;20024;-75
2022/07/06 07:53:37;;;;;;;8.18;1.40;;;22.50;82.80;;;;;;4931283;29;20043;-73
2022/07/06 07:56:03;;;;;;;6.05;1.65;;;22.50;81.80;;;;;;4930988;29;20028;-75
2022/07/06 07:58:29;;;;;;;15.80;1.70;;;22.60;82.20;;;;;;4934275;29;20034;-76
2022/07/06 08:00:56;;;;;;;8.95;1.98;;;22.70;82.70;;;;;;4930188;29;20079;-75
2022/07/06 08:03:21;;;;;;;9.27;1.33;;;22.90;82.70;;;;;;4933147;29;20051;-75
2022/07/06 08:05:48;;;;;;;11.57;2.08;;;22.90;82.20;;;;;;4919803;29;20032;-76
2022/07/06 08:08:14;;;;;;;7.57;1.88;;;22.80;83.10;;;;;;4915801;29;20070;-76
2022/07/06 08:10:40;;;;;;;9.57;1.60;;;22.90;82.40;;;;;;4922480;29;20019;-76
2022/07/06 08:13:07;;;;;;;6.28;1.80;;;22.90;82.50;;;;;;4934557;29;20487;-76
2022/07/06 08:15:33;;;;;;;5.70;1.23;;;22.90;82.00;;;;;;4934570;29;20476;-75
2022/07/06 08:17:59;;;;;;;5.00;1.38;;;23.10;82.30;;;;;;4932144;29;20098;-75
2022/07/06 08:20:25;;;;;;;5.70;1.30;;;23.00;81.50;;;;;;4937694;29;20027;-76
2022/07/06 08:22:50;;;;;;;5.82;1.30;;;23.00;80.70;;;;;;4938094;29;20024;-76
2022/07/06 08:25:17;;;;;;;4.95;1.20;;;22.90;80.00;;;;;;4937773;29;20039;-76
2022/07/06 08:27:42;;;;;;;7.97;1.50;;;23.10;80.50;;;;;;4938063;29;20111;-75
2022/07/06 08:30:09;;;;;;;3.08;1.30;;;23.10;80.50;;;;;;4937259;29;20159;-76
2022/07/06 08:32:41;;;;;;;8.00;1.08;;;23.10;80.80;;;;;;4938052;29;20036;-75
2022/07/06 08:35:07;;;;;;;11.05;1.30;;;23.10;80.30;;;;;;4938216;29;20028;-75
2022/07/06 08:37:33;;;;;;;2.67;1.08;;;23.20;80.80;;;;;;4935748;29;20098;-77
2022/07/06 08:39:58;;;;;;;4.30;1.17;;;23.20;80.10;;;;;;4930248;29;20420;-77
2022/07/06 08:42:30;;;;;;;7.97;1.45;;;23.20;80.50;;;;;;4929996;29;20384;-75
2022/07/06 08:44:58;;;;;;;3.55;1.40;;;23.10;80.20;;;;;;4920450;29;20516;-78
2022/07/06 08:47:27;;;;;;;6.88;1.13;;;23.20;79.70;;;;;;4918886;29;20369;-75
2022/07/06 08:49:53;;;;;;;5.43;1.27;;;23.30;78.80;;;;;;4920415;29;20065;-75
2022/07/06 08:52:19;;;;;;;5.93;1.40;;;23.40;79.10;;;;;;4935895;29;20034;-78
2022/07/06 10:06:34;;;;;;;4.97;1.73;;;24.10;78.30;;;;;;4856517;29;1153923;-76
2022/07/06 10:09:02;;;;;;;8.77;2.13;;;24.10;79.80;;;;;;4913512;29;20056;-78
2022/07/06 10:11:29;;;;;;;13.13;2.05;;;24.40;80.00;;;;;;4897848;29;20480;-78
2022/07/06 10:13:56;;;;;;;7.13;1.42;;;24.60;81.30;;;;;;4898984;29;20036;-78
2022/07/06 10:16:23;;;;;;;7.28;1.92;;;24.40;80.80;;;;;;4898693;29;20032;-78
2022/07/06 10:18:53;;;;;;;3.97;1.52;;;24.50;80.40;;;;;;4899109;29;20021;-78
2022/07/06 10:21:21;;;;;;;14.25;2.03;;;24.30;81.50;;;;;;4897518;29;20032;-76
2022/07/06 10:23:48;;;;;;;5.03;1.85;;;23.90;80.70;;;;;;4898310;29;20032;-77
2022/07/06 10:26:14;;;;;;;3.40;1.45;;;24.10;81.00;;;;;;4897746;29;20507;-76
2022/07/06 10:28:42;;;;;;;10.85;1.95;;;24.60;80.80;;;;;;4898148;29;20028;-78
2022/07/06 10:31:08;;;;;;;4.47;1.60;;;24.80;80.10;;;;;;4897383;29;20040;-77
2022/07/06 10:33:36;;;;;;;6.95;1.45;;;25.60;77.30;;;;;;4899549;29;20029;-78
2022/07/06 10:36:02;;;;;;;6.50;1.70;;;26.20;74.90;;;;;;4896472;29;20036;-77
2022/07/06 10:38:33;;;;;;;5.03;1.80;;;26.70;74.20;;;;;;4889820;29;20061;-77
2022/07/06 10:41:07;;;;;;;6.30;2.10;;;26.80;73.10;;;;;;4885390;29;20036;-75
2022/07/06 10:43:37;;;;;;;8.85;1.88;;;27.00;72.50;;;;;;4891558;29;20412;-76
2022/07/06 10:46:07;;;;;;;12.43;1.70;;;27.40;71.70;;;;;;4894181;29;20401;-77
2022/07/06 10:48:46;;;;;;;7.28;1.75;;;27.40;70.30;;;;;;4887577;29;20025;-77
2022/07/06 10:51:21;;;;;;;6.30;1.25;;;27.30;69.90;;;;;;4895892;29;20021;-77
2022/07/06 10:54:00;;;;;;;5.45;1.50;;;27.30;69.30;;;;;;4896119;29;20366;-80
2022/07/06 10:56:52;;;;;;;6.95;1.80;;;27.10;70.40;;;;;;4896631;29;20020;-76
2022/07/06 10:59:23;;;;;;;6.18;2.00;;;27.20;70.50;;;;;;4885817;29;20437;-81
2022/07/06 11:02:17;;;;;;;3.90;1.60;;;27.30;71.70;;;;;;4891124;29;20032;-76
2022/07/06 11:04:45;;;;;;;9.60;1.77;;;27.30;70.70;;;;;;4883688;29;20127;-78
2022/07/06 11:07:18;;;;;;;7.82;1.40;;;27.70;70.50;;;;;;4887799;29;20025;-77
2022/07/06 11:09:58;;;;;;;5.40;1.45;;;27.90;72.10;;;;;;4884981;29;20012;-82
2022/07/06 11:12:24;;;;;;;11.65;1.80;;;28.00;68.50;;;;;;4893091;29;20032;-76
2022/07/06 11:14:51;;;;;;;5.05;1.13;;;27.80;67.80;;;;;;4885302;29;20029;-75
2022/07/06 11:17:17;;;;;;;6.03;1.67;;;27.80;67.70;;;;;;4892342;29;20100;-76
2022/07/06 11:20:08;;;;;;;4.07;1.40;;;28.00;65.90;;;;;;4888026;29;20033;-75
2022/07/06 11:22:36;;;;;;;5.53;1.53;;;28.20;65.70;;;;;;4887177;29;20036;-76
2022/07/06 11:25:02;;;;;;;3.78;1.40;;;28.00;64.90;;;;;;4898889;29;20046;-76
2022/07/06 11:27:29;;;;;;;3.38;1.30;;;27.90;64.20;;;;;;4900169;29;20112;-76
2022/07/06 11:29:55;;;;;;;2.78;1.20;;;28.00;65.90;;;;;;4888047;29;20508;-75
2022/07/06 11:32:25;;;;;;;6.22;1.15;;;28.00;63.70;;;;;;4895854;29;20087;-76
2022/07/06 11:34:51;;;;;;;3.65;1.10;;;28.20;63.30;;;;;;4886996;29;20033;-76
2022/07/06 11:37:20;;;;;;;8.45;1.30;;;28.40;63.30;;;;;;4887659;29;20024;-76
2022/07/06 11:39:47;;;;;;;5.70;1.10;;;28.50;61.40;;;;;;4886274;29;20046;-75
2022/07/06 11:42:15;;;;;;;3.10;1.33;;;28.90;61.60;;;;;;4892220;29;20036;-76
2022/07/06 11:44:41;;;;;;;2.30;1.17;;;28.70;58.80;;;;;;4894405;29;20021;-75
2022/07/06 11:47:08;;;;;;;3.47;1.20;;;28.30;58.70;;;;;;4895610;29;20020;-76
2022/07/06 11:49:36;;;;;;;2.83;1.10;;;28.10;59.30;;;;;;4891418;29;20033;-75
2022/07/06 11:52:07;;;;;;;5.00;0.95;;;28.30;59.70;;;;;;4892900;29;20029;-75
2022/07/06 11:54:33;;;;;;;3.17;1.00;;;28.30;59.30;;;;;;4886686;29;20175;-75
2022/07/06 11:57:00;;;;;;;4.90;1.17;;;28.40;59.20;;;;;;4891091;29;20092;-75
2022/07/06 11:59:31;;;;;;;6.25;1.02;;;28.40;59.90;;;;;;4893651;29;20036;-76
2022/07/06 12:02:01;;;;;;;7.85;1.10;;;28.50;60.40;;;;;;4892723;29;20484;-76
2022/07/06 12:04:26;;;;;;;3.05;1.15;;;28.30;59.90;;;;;;4900652;29;20158;-76
2022/07/06 12:06:52;;;;;;;4.72;1.08;;;28.20;60.80;;;;;;4900518;29;20029;-74
2022/07/06 12:09:19;;;;;;;1.88;1.08;;;28.30;62.40;;;;;;4900776;29;20021;-76
2022/07/06 12:11:48;;;;;;;2.40;1.10;;;28.40;63.10;;;;;;4901315;29;20025;-76
2022/07/06 12:14:16;;;;;;;7.43;1.25;;;28.30;60.10;;;;;;4899313;29;20108;-76
2022/07/06 12:16:42;;;;;;;2.42;1.00;;;28.30;59.90;;;;;;4895254;29;20473;-75
2022/07/06 12:19:11;;;;;;;2.55;1.20;;;28.30;60.40;;;;;;4894350;29;20112;-76
2022/07/06 12:21:46;;;;;;;3.15;1.10;;;28.30;58.20;;;;;;4898748;29;20036;-75
2022/07/06 12:24:20;;;;;;;5.95;1.00;;;28.40;59.30;;;;;;4894823;29;20103;-76
2022/07/06 12:26:46;;;;;;;5.85;1.10;;;28.60;59.10;;;;;;4899198;29;20028;-76
2022/07/06 12:29:13;;;;;;;7.40;1.17;;;28.70;59.10;;;;;;4893083;29;20057;-76
2022/07/06 12:31:58;;;;;;;3.05;0.90;;;28.70;58.20;;;;;;4898441;29;20067;-76
2022/07/06 12:34:26;;;;;;;6.00;1.23;;;28.90;58.30;;;;;;4884840;29;20029;-76
2022/07/06 12:36:57;;;;;;;2.72;0.90;;;29.00;57.50;;;;;;4891441;29;20040;-76
2022/07/06 12:39:26;;;;;;;2.00;1.13;;;29.00;55.80;;;;;;4885998;29;20032;-76
2022/07/06 12:41:59;;;;;;;3.47;1.27;;;29.10;56.00;;;;;;4895742;29;20512;-76
2022/07/06 12:44:25;;;;;;;2.55;1.20;;;29.20;57.50;;;;;;4898504;29;20139;-76
2022/07/06 12:47:05;;;;;;;2.90;1.00;;;28.90;56.50;;;;;;4891411;29;20021;-75
2022/07/06 12:49:31;;;;;;;7.72;1.10;;;28.90;57.90;;;;;;4895591;29;20020;-76
2022/07/06 12:52:10;;;;;;;2.42;1.20;;;29.00;56.20;;;;;;4889848;29;20020;-75
2022/07/06 12:54:49;;;;;;;2.95;1.05;;;29.10;55.70;;;;;;4895915;29;20024;-76
2022/07/06 12:57:25;;;;;;;1.58;0.80;;;28.90;55.90;;;;;;4891232;29;20041;-76
2022/07/06 12:59:53;;;;;;;3.33;1.30;;;28.90;54.90;;;;;;4895003;29;20116;-75
2022/07/06 13:02:21;;;;;;;4.72;1.35;;;29.00;54.60;;;;;;4891029;29;20044;-76
2022/07/06 13:05:01;;;;;;;1.67;0.77;;;28.90;53.50;;;;;;4893555;29;20084;-76
2022/07/06 13:07:28;;;;;;;4.72;1.13;;;28.70;54.50;;;;;;4881453;29;20414;-76
2022/07/06 13:09:54;;;;;;;2.10;1.05;;;28.90;53.20;;;;;;4886614;29;20020;-76
2022/07/06 13:12:21;;;;;;;3.50;1.20;;;29.10;55.50;;;;;;4899017;29;20043;-75
2022/07/06 13:14:47;;;;;;;3.50;1.20;;;29.00;55.40;;;;;;4899297;29;20697;-76
2022/07/06 13:17:13;;;;;;;7.00;0.95;;;29.00;55.70;;;;;;4898885;29;20028;-75
2022/07/06 13:19:39;;;;;;;3.78;1.00;;;29.10;55.90;;;;;;4898218;29;20056;-75
2022/07/06 13:22:05;;;;;;;3.17;0.98;;;28.90;54.40;;;;;;4899522;29;20055;-75
2022/07/06 13:24:30;;;;;;;7.00;1.00;;;29.00;54.50;;;;;;4898692;29;20103;-75
2022/07/06 13:26:57;;;;;;;4.20;0.98;;;29.10;55.80;;;;;;4899532;29;20063;-75
2022/07/06 13:29:23;;;;;;;2.40;0.80;;;29.10;55.10;;;;;;4899110;29;20476;-75
2022/07/06 13:31:49;;;;;;;3.58;1.05;;;28.90;52.10;;;;;;4899893;29;20233;-75
2022/07/06 13:34:14;;;;;;;6.43;0.90;;;28.70;51.30;;;;;;4899151;29;20075;-75
2022/07/06 13:36:40;;;;;;;3.33;1.08;;;28.60;50.30;;;;;;4899565;29;20028;-76
2022/07/06 13:39:06;;;;;;;4.22;0.90;;;28.80;51.00;;;;;;4898870;29;20103;-76
2022/07/06 13:41:33;;;;;;;4.13;0.80;;;28.90;49.50;;;;;;4897981;29;20029;-75
2022/07/06 13:44:00;;;;;;;3.78;1.00;;;28.90;48.20;;;;;;4899502;29;20024;-75
2022/07/06 13:46:30;;;;;;;3.53;0.80;;;28.90;45.70;;;;;;4898991;29;20453;-79
2022/07/06 13:48:57;;;;;;;3.45;0.90;;;29.00;45.90;;;;;;4897956;29;20396;-75
2022/07/06 13:51:24;;;;;;;3.35;0.88;;;29.20;47.40;;;;;;4898962;29;20071;-76
2022/07/06 13:53:50;;;;;;;2.58;0.70;;;29.20;47.50;;;;;;4896305;29;20373;-76
2022/07/06 13:56:16;;;;;;;2.15;0.98;;;29.10;43.30;;;;;;4894638;29;20145;-75
2022/07/06 13:58:43;;;;;;;3.92;1.13;;;29.10;47.70;;;;;;4898739;29;20115;-76
2022/07/06 14:01:10;;;;;;;3.60;0.90;;;29.20;46.50;;;;;;4898386;29;20037;-76